createdAt,value
2023-04-19T00:02:11.234Z,3.70
2023-04-19T00:04:38.323Z,2.80
2023-04-19T00:07:04.720Z,4.03
2023-04-19T00:09:31.135Z,2.65
2023-04-19T00:11:57.460Z,2.80
2023-04-19T00:14:23.800Z,2.80
2023-04-19T00:16:50.145Z,2.22
2023-04-19T00:19:16.562Z,5.30
2023-04-19T00:21:42.885Z,5.43
2023-04-19T00:24:09.304Z,3.85
2023-04-19T00:26:35.746Z,2.78
2023-04-19T00:29:02.046Z,2.03
2023-04-19T00:31:28.499Z,2.42
2023-04-19T00:33:55.276Z,3.00
2023-04-19T00:36:21.629Z,4.05
2023-04-19T00:38:48.117Z,3.08
2023-04-19T00:41:14.485Z,3.95
2023-04-19T00:43:40.807Z,4.68
2023-04-19T00:46:07.450Z,4.65
2023-04-19T00:48:36.193Z,5.43
2023-04-19T00:51:02.671Z,5.40
2023-04-19T00:53:29.065Z,4.80
2023-04-19T00:55:57.348Z,4.07
2023-04-19T00:58:23.774Z,4.03
2023-04-19T01:00:50.076Z,4.32
2023-04-19T01:03:17.047Z,4.65
2023-04-19T01:05:43.528Z,3.45
2023-04-19T01:08:09.827Z,5.22
2023-04-19T01:10:36.197Z,4.63
2023-04-19T01:13:02.491Z,5.80
2023-04-19T01:15:28.870Z,4.88
2023-04-19T01:17:56.369Z,4.00
2023-04-19T01:20:22.795Z,6.85
2023-04-19T01:22:49.197Z,4.45
2023-04-19T01:25:15.949Z,3.50
2023-04-19T01:27:42.413Z,5.05
2023-04-19T01:30:09.078Z,4.38
2023-04-19T01:32:35.438Z,5.45
2023-04-19T01:35:01.823Z,4.70
2023-04-19T01:37:28.152Z,4.15
2023-04-19T01:39:54.448Z,4.00
2023-04-19T01:42:20.831Z,4.88
2023-04-19T01:44:47.175Z,5.70
2023-04-19T01:47:13.597Z,3.42
2023-04-19T01:49:39.962Z,2.75
2023-04-19T01:52:06.401Z,3.92
2023-04-19T01:54:32.780Z,4.88
2023-04-19T01:56:59.083Z,4.68
2023-04-19T01:59:25.446Z,3.78
2023-04-19T02:01:51.772Z,3.08
2023-04-19T02:04:20.308Z,5.13
2023-04-19T02:06:46.722Z,5.50
2023-04-19T02:09:13.191Z,3.58
2023-04-19T02:11:39.539Z,3.13
2023-04-19T02:14:06.205Z,3.33
2023-04-19T02:16:35.183Z,3.65
2023-04-19T02:19:02.324Z,4.38
2023-04-19T02:21:28.742Z,2.45
2023-04-19T02:23:55.139Z,4.40
2023-04-19T02:26:22.159Z,3.25
2023-04-19T02:28:50.448Z,2.33
2023-04-19T02:31:16.836Z,2.65
2023-04-19T02:33:43.706Z,2.45
2023-04-19T02:36:10.144Z,2.03
2023-04-19T02:38:36.459Z,3.05
2023-04-19T02:41:04.454Z,3.55
2023-04-19T02:43:30.945Z,3.83
2023-04-19T02:45:57.369Z,4.07
2023-04-19T02:48:23.769Z,5.75
2023-04-19T02:50:50.450Z,4.70
2023-04-19T02:53:16.821Z,5.60
2023-04-19T02:55:43.138Z,5.70
2023-04-19T02:58:09.543Z,4.60
2023-04-19T03:00:35.878Z,5.20
2023-04-19T03:03:04.701Z,6.65
2023-04-19T03:05:31.234Z,5.43
2023-04-19T03:07:57.531Z,4.75
2023-04-19T03:10:23.824Z,3.63
2023-04-19T03:12:50.239Z,4.95
2023-04-19T03:15:16.763Z,4.72
2023-04-19T03:17:43.191Z,3.05
2023-04-19T03:20:11.591Z,3.08
2023-04-19T03:22:38.450Z,6.60
2023-04-19T03:25:05.012Z,3.70
2023-04-19T03:27:35.091Z,3.42
2023-04-19T03:30:01.439Z,4.90
2023-04-19T03:32:27.785Z,4.40
2023-04-19T03:34:54.088Z,2.63
2023-04-19T03:37:20.695Z,3.67
2023-04-19T03:39:47.085Z,2.63
2023-04-19T03:42:13.482Z,3.40
2023-04-19T03:44:39.876Z,3.05
2023-04-19T03:47:06.165Z,2.70
2023-04-19T03:49:32.478Z,4.18
2023-04-19T03:51:58.859Z,2.97
2023-04-19T03:54:25.335Z,2.65
2023-04-19T03:56:51.637Z,4.32
2023-04-19T03:59:17.941Z,4.22
2023-04-19T04:01:44.260Z,2.65
2023-04-19T04:04:11.914Z,3.88
2023-04-19T04:06:38.527Z,3.03
2023-04-19T04:09:05.007Z,2.47
2023-04-19T04:11:31.369Z,3.47
2023-04-19T04:13:57.696Z,2.85
2023-04-19T04:16:24.251Z,3.03
2023-04-19T04:18:50.654Z,2.08
2023-04-19T04:21:17.004Z,2.00
2023-04-19T04:23:43.417Z,1.90
2023-04-19T04:26:10.076Z,1.38
2023-04-19T04:28:36.595Z,1.55
2023-04-19T04:31:03.237Z,2.33
2023-04-19T04:33:29.576Z,1.90
2023-04-19T04:35:56.830Z,1.30
2023-04-19T04:38:24.950Z,1.45
2023-04-19T04:40:55.041Z,1.65
2023-04-19T04:43:25.733Z,1.92
2023-04-19T04:45:52.190Z,1.92
2023-04-19T04:48:18.782Z,2.38
2023-04-19T04:50:45.285Z,2.50
2023-04-19T04:53:13.224Z,2.55
2023-04-19T04:55:39.805Z,2.00
2023-04-19T04:58:06.352Z,1.73
2023-04-19T05:00:33.027Z,2.85
2023-04-19T05:02:59.833Z,2.83
2023-04-19T05:05:26.475Z,4.18
2023-04-19T05:07:52.942Z,4.70
2023-04-19T05:10:19.288Z,3.67
2023-04-19T05:12:45.715Z,2.80
2023-04-19T05:15:12.139Z,3.42
2023-04-19T05:17:38.522Z,3.78
2023-04-19T05:20:05.911Z,3.25
2023-04-19T05:22:32.275Z,2.28
2023-04-19T05:24:58.749Z,3.40
2023-04-19T05:27:26.159Z,3.13
2023-04-19T05:29:52.577Z,2.55
2023-04-19T05:32:19.437Z,2.78
2023-04-19T05:34:45.862Z,2.47
2023-04-19T05:37:12.198Z,2.63
2023-04-19T05:39:38.485Z,2.00
2023-04-19T05:42:04.954Z,1.92
2023-04-19T05:44:31.350Z,2.63
2023-04-19T05:46:57.701Z,1.58
2023-04-19T05:49:24.089Z,2.42
2023-04-19T05:51:50.446Z,2.80
2023-04-19T05:54:17.419Z,2.65
2023-04-19T05:56:43.944Z,2.75
2023-04-19T05:59:11.601Z,2.72
2023-04-19T06:01:38.215Z,3.30
2023-04-19T06:04:04.812Z,1.40
2023-04-19T06:06:31.289Z,1.50
2023-04-19T06:08:57.926Z,2.15
2023-04-19T06:11:31.520Z,1.67
2023-04-19T06:14:05.988Z,1.50
2023-04-19T06:16:32.482Z,1.45
2023-04-19T06:18:58.914Z,1.50
2023-04-19T06:21:25.332Z,2.17
2023-04-19T06:23:51.907Z,2.38
2023-04-19T06:26:18.337Z,3.17
2023-04-19T06:28:44.803Z,2.78
2023-04-19T06:31:12.205Z,3.55
2023-04-19T06:33:38.792Z,3.05
2023-04-19T06:36:05.405Z,3.45
2023-04-19T06:38:31.762Z,2.55
2023-04-19T06:40:58.302Z,1.67
2023-04-19T06:43:24.704Z,1.80
2023-04-19T06:45:58.029Z,1.40
2023-04-19T06:48:24.533Z,1.88
2023-04-19T06:50:50.908Z,1.20
2023-04-19T06:53:17.310Z,1.30
2023-04-19T06:55:44.570Z,3.83
2023-04-19T06:58:10.990Z,3.08
2023-04-19T07:00:37.425Z,3.28
2023-04-19T07:03:03.952Z,3.38
2023-04-19T07:05:30.930Z,3.65
2023-04-19T07:07:57.696Z,1.92
2023-04-19T07:10:24.265Z,2.15
2023-04-19T07:12:51.394Z,2.08
2023-04-19T07:15:17.792Z,2.28
2023-04-19T07:17:44.114Z,5.75
2023-04-19T07:20:11.181Z,3.75
2023-04-19T07:22:37.597Z,4.22
2023-04-19T07:25:04.167Z,3.60
2023-04-19T07:27:30.561Z,3.67
2023-04-19T07:29:56.857Z,5.18
2023-04-19T07:32:23.444Z,4.90
2023-04-19T07:34:51.535Z,4.20
2023-04-19T07:37:17.828Z,4.30
2023-04-19T07:39:44.520Z,4.30
2023-04-19T07:42:10.806Z,4.88
2023-04-19T07:44:37.204Z,2.65
2023-04-19T07:47:04.269Z,2.97
2023-04-19T07:49:33.945Z,2.05
2023-04-19T07:52:07.009Z,3.92
2023-04-19T07:54:33.376Z,2.60
2023-04-19T07:56:59.777Z,2.20
2023-04-19T07:59:26.174Z,1.88
2023-04-19T08:01:52.687Z,1.50
2023-04-19T08:04:20.855Z,2.38
2023-04-19T08:06:47.569Z,2.13
2023-04-19T08:09:14.047Z,2.17
2023-04-19T08:11:40.384Z,2.30
2023-04-19T08:14:12.027Z,3.85
2023-04-19T08:19:14.045Z,3.13
2023-04-19T08:21:41.752Z,2.47
2023-04-19T08:24:08.395Z,4.13
2023-04-19T08:26:34.980Z,3.75
2023-04-19T08:29:01.687Z,3.80
2023-04-19T08:31:28.036Z,3.55
2023-04-19T08:33:54.873Z,3.35
2023-04-19T08:36:28.702Z,4.43
2023-04-19T08:39:05.727Z,2.83
2023-04-19T08:41:34.890Z,3.80
2023-04-19T08:44:02.432Z,2.97
2023-04-19T08:46:29.180Z,3.88
2023-04-19T08:48:55.557Z,2.85
2023-04-19T08:51:22.139Z,3.05
2023-04-19T08:53:49.697Z,2.42
2023-04-19T08:56:24.372Z,2.20
2023-04-19T08:59:19.117Z,2.50
2023-04-19T09:01:45.284Z,3.13
2023-04-19T09:04:34.574Z,2.78
2023-04-19T09:06:58.192Z,2.45
2023-04-19T09:11:54.907Z,3.30
2023-04-19T09:14:22.040Z,3.78
2023-04-19T09:16:48.723Z,4.32
2023-04-19T09:19:24.352Z,3.22
2023-04-19T09:21:53.627Z,2.55
2023-04-19T09:25:04.354Z,2.13
2023-04-19T09:27:30.859Z,2.80
2023-04-19T09:29:58.303Z,2.30
2023-04-19T09:32:25.229Z,2.88
2023-04-19T09:34:53.020Z,2.97
2023-04-19T09:37:32.943Z,3.35
2023-04-19T09:40:21.924Z,3.28
2023-04-19T09:48:00.247Z,3.40
2023-04-19T09:50:27.724Z,3.80
2023-04-19T09:52:54.372Z,4.50
2023-04-19T09:57:51.738Z,3.17
2023-04-19T10:00:18.295Z,4.22
2023-04-19T10:02:45.242Z,4.30
2023-04-19T10:05:20.284Z,5.07
2023-04-19T10:07:47.818Z,3.85
2023-04-19T10:10:20.289Z,3.10
2023-04-19T10:15:20.382Z,2.10
2023-04-19T10:17:46.989Z,1.95
2023-04-19T10:20:17.433Z,3.88
2023-04-19T10:22:43.782Z,4.40
2023-04-19T10:25:14.217Z,2.72
2023-04-19T10:27:42.265Z,3.65
2023-04-19T10:30:17.993Z,3.20
2023-04-19T10:32:45.411Z,1.75
2023-04-19T10:35:17.838Z,1.58
2023-04-19T10:38:11.175Z,3.78
2023-04-19T10:40:55.054Z,3.10
2023-04-19T10:43:22.311Z,2.55
2023-04-19T10:45:48.766Z,2.72
2023-04-19T10:48:38.988Z,1.90
2023-04-19T10:51:14.570Z,2.70
2023-04-19T10:53:43.790Z,2.63
2023-04-19T10:56:10.214Z,1.85
2023-04-19T10:58:55.596Z,2.00
2023-04-19T11:01:42.986Z,1.98
2023-04-19T11:04:20.216Z,1.77
2023-04-19T11:06:52.820Z,3.20
2023-04-19T11:09:23.794Z,2.38
2023-04-19T11:11:50.400Z,1.95
2023-04-19T11:14:17.044Z,2.53
2023-04-19T11:16:46.206Z,3.55
2023-04-19T11:19:16.397Z,2.20
2023-04-19T11:21:45.857Z,2.03
2023-04-19T11:24:12.493Z,2.90
2023-04-19T11:26:39.397Z,2.38
2023-04-19T11:29:08.862Z,2.35
2023-04-19T11:31:35.608Z,1.85
2023-04-19T11:34:04.944Z,1.95
2023-04-19T11:36:32.209Z,2.25
2023-04-19T11:38:58.724Z,1.48
2023-04-19T11:41:25.293Z,2.83
2023-04-19T11:43:51.886Z,2.53
2023-04-19T11:46:18.297Z,2.88
2023-04-19T11:48:55.022Z,1.73
2023-04-19T11:51:21.700Z,3.13
2023-04-19T11:53:48.109Z,1.38
2023-04-19T11:56:15.537Z,2.65
2023-04-19T11:58:44.856Z,2.95
2023-04-19T12:01:21.114Z,2.28
2023-04-19T12:03:47.756Z,2.25
2023-04-19T12:06:15.478Z,1.00
2023-04-19T12:08:44.968Z,0.85
2023-04-19T12:11:11.396Z,2.25
2023-04-19T12:13:37.948Z,2.35
2023-04-19T12:16:04.532Z,2.22
2023-04-19T12:18:50.465Z,2.05
2023-04-19T12:21:30.734Z,1.60
2023-04-19T12:23:58.049Z,1.60
2023-04-19T12:26:25.663Z,2.60
2023-04-19T12:28:51.982Z,1.25
2023-04-19T12:31:18.306Z,1.38
2023-04-19T12:33:44.633Z,1.70
2023-04-19T12:36:11.228Z,1.52
2023-04-19T12:38:37.765Z,2.17
2023-04-19T12:41:04.239Z,1.13
2023-04-19T12:43:31.970Z,2.90
2023-04-19T12:45:58.665Z,2.47
2023-04-19T12:48:25.419Z,1.30
2023-04-19T12:50:52.081Z,1.15
2023-04-19T12:53:18.619Z,1.33
2023-04-19T12:55:49.052Z,1.38
2023-04-19T12:58:16.143Z,2.17
2023-04-19T13:00:42.840Z,1.65
2023-04-19T13:03:09.619Z,2.00
2023-04-19T13:05:36.296Z,1.80
2023-04-19T13:08:02.686Z,1.17
2023-04-19T13:10:29.047Z,0.82
2023-04-19T13:12:56.478Z,1.02
2023-04-19T13:15:22.831Z,0.80
2023-04-19T13:17:49.255Z,2.42
2023-04-19T13:20:15.657Z,1.17
2023-04-19T13:22:42.005Z,1.10
2023-04-19T13:25:08.712Z,1.55
2023-04-19T13:27:35.053Z,1.92
2023-04-19T13:30:01.620Z,0.95
2023-04-19T13:32:28.725Z,0.80
2023-04-19T13:34:55.188Z,2.15
2023-04-19T13:37:21.663Z,1.00
2023-04-19T13:39:48.079Z,0.60
2023-04-19T13:42:14.424Z,1.60
2023-04-19T13:44:40.766Z,0.60
2023-04-19T13:47:07.247Z,1.63
2023-04-19T13:49:33.808Z,0.77
2023-04-19T13:52:00.190Z,0.50
2023-04-19T13:54:26.779Z,1.02
2023-04-19T13:56:53.112Z,1.50
2023-04-19T13:59:19.443Z,0.65
2023-04-19T14:01:45.948Z,0.60
2023-04-19T14:04:12.699Z,2.28
2023-04-19T14:06:39.248Z,2.22
2023-04-19T14:09:05.582Z,0.88
2023-04-19T14:11:32.267Z,2.10
2023-04-19T14:13:58.581Z,1.80
2023-04-19T14:16:25.528Z,0.60
2023-04-19T14:18:52.477Z,0.75
2023-04-19T14:21:19.119Z,1.23
2023-04-19T14:23:45.416Z,1.00
2023-04-19T14:26:11.990Z,1.02
2023-04-19T14:28:38.293Z,0.50
2023-04-19T14:31:04.668Z,1.48
2023-04-19T14:33:31.922Z,1.13
2023-04-19T14:35:58.413Z,3.60
2023-04-19T14:38:24.741Z,1.00
2023-04-19T14:40:51.205Z,1.10
2023-04-19T14:43:17.946Z,1.83
2023-04-19T14:45:44.279Z,1.92
2023-04-19T14:48:10.779Z,2.85
2023-04-19T14:50:37.228Z,1.80
2023-04-19T14:53:03.637Z,1.10
2023-04-19T14:55:30.137Z,0.70
2023-04-19T14:57:56.446Z,0.90
2023-04-19T15:00:22.825Z,2.22
2023-04-19T15:02:49.366Z,0.60
2023-04-19T15:05:15.963Z,0.80
2023-04-19T15:07:42.677Z,0.35
2023-04-19T15:10:09.338Z,0.82
2023-04-19T15:12:35.784Z,0.90
2023-04-19T15:15:02.217Z,0.90
2023-04-19T15:17:28.569Z,1.70
2023-04-19T15:19:54.959Z,1.13
2023-04-19T15:22:21.424Z,0.88
2023-04-19T15:24:47.876Z,0.98
2023-04-19T15:27:14.194Z,1.00
2023-04-19T15:29:41.284Z,0.60
2023-04-19T15:32:07.699Z,0.82
2023-04-19T15:34:34.131Z,0.63
2023-04-19T15:37:01.770Z,1.63
2023-04-19T15:39:28.134Z,0.88
2023-04-19T15:41:54.442Z,1.02
2023-04-19T15:44:20.864Z,1.30
2023-04-19T15:46:47.244Z,1.00
2023-04-19T15:49:13.693Z,1.88
2023-04-19T15:51:40.543Z,1.30
2023-04-19T15:54:06.988Z,0.60
2023-04-19T15:56:33.334Z,1.13
2023-04-19T15:58:59.633Z,0.75
2023-04-19T16:01:26.889Z,0.77
2023-04-19T16:03:53.468Z,0.60
2023-04-19T16:06:20.047Z,0.40
2023-04-19T16:08:46.362Z,1.10
2023-04-19T16:11:12.718Z,1.02
2023-04-19T16:13:39.086Z,1.42
2023-04-19T16:16:06.091Z,3.58
2023-04-19T16:18:32.470Z,1.00
2023-04-19T16:20:58.876Z,1.30
2023-04-19T16:23:25.507Z,0.68
2023-04-19T16:25:52.957Z,1.25
2023-04-19T16:28:20.465Z,1.45
2023-04-19T16:30:47.502Z,1.73
2023-04-19T16:33:15.388Z,1.02
2023-04-19T16:35:41.939Z,1.52
2023-04-19T16:38:08.312Z,1.70
2023-04-19T16:40:34.842Z,1.73
2023-04-19T16:43:01.648Z,1.52
2023-04-19T16:45:28.155Z,2.85
2023-04-19T16:47:54.643Z,1.58
2023-04-19T16:50:21.006Z,1.50
2023-04-19T16:52:47.441Z,1.05
2023-04-19T16:55:14.353Z,1.25
2023-04-19T16:57:41.076Z,1.73
2023-04-19T17:00:07.806Z,0.82
2023-04-19T17:02:34.276Z,0.82
2023-04-19T17:05:01.148Z,1.00
2023-04-19T17:07:27.769Z,1.10
2023-04-19T17:09:54.995Z,0.80
2023-04-19T17:12:21.346Z,1.33
2023-04-19T17:14:47.730Z,2.00
2023-04-19T17:17:14.160Z,0.90
2023-04-19T17:19:40.584Z,1.17
2023-04-19T17:22:07.182Z,0.85
2023-04-19T17:24:33.790Z,1.13
2023-04-19T17:27:00.327Z,2.53
2023-04-19T17:29:26.879Z,0.90
2023-04-19T17:31:53.432Z,0.70
2023-04-19T17:34:19.885Z,1.10
2023-04-19T17:36:46.247Z,1.00
2023-04-19T17:39:12.623Z,2.17
2023-04-19T17:41:39.031Z,2.42
2023-04-19T17:44:05.513Z,0.80
2023-04-19T17:46:31.827Z,1.45
2023-04-19T17:48:58.372Z,2.58
2023-04-19T17:51:24.738Z,0.75
2023-04-19T17:53:51.534Z,1.00
2023-04-19T17:56:17.967Z,0.90
2023-04-19T17:58:44.381Z,2.28
2023-04-19T18:01:10.728Z,0.90
2023-04-19T18:03:38.099Z,1.73
2023-04-19T18:06:04.627Z,1.00
2023-04-19T18:08:32.210Z,0.88
2023-04-19T18:10:58.637Z,1.98
2023-04-19T18:13:24.992Z,1.25
2023-04-19T18:15:51.411Z,1.60
2023-04-19T18:18:18.016Z,1.08
2023-04-19T18:20:44.350Z,3.33
2023-04-19T18:23:10.791Z,1.05
2023-04-19T18:25:37.222Z,1.10
2023-04-19T18:28:04.442Z,0.75
2023-04-19T18:30:30.872Z,0.88
2023-04-19T18:32:58.728Z,1.08
2023-04-19T18:35:25.351Z,1.33
2023-04-19T18:37:51.771Z,0.57
2023-04-19T18:40:18.970Z,0.43
2023-04-19T18:42:45.589Z,1.08
2023-04-19T18:45:12.104Z,0.60
2023-04-19T18:47:38.465Z,1.08
2023-04-19T18:50:08.518Z,0.77
2023-04-19T18:52:36.368Z,0.90
2023-04-19T18:55:03.455Z,2.05
2023-04-19T18:57:34.255Z,1.08
2023-04-19T19:00:01.740Z,0.85
2023-04-19T19:02:28.192Z,0.40
2023-04-19T19:04:58.469Z,0.50
2023-04-19T19:10:01.624Z,0.77
2023-04-19T19:12:28.329Z,0.40
2023-04-19T19:14:54.619Z,0.40
2023-04-19T19:17:21.262Z,0.50
2023-04-19T19:19:54.274Z,0.73
2023-04-19T19:22:27.535Z,0.40
2023-04-19T19:24:55.010Z,0.70
2023-04-19T19:27:21.384Z,0.50
2023-04-19T19:29:47.757Z,1.45
2023-04-19T19:32:14.206Z,1.20
2023-04-19T19:34:53.983Z,0.50
2023-04-19T19:37:22.526Z,0.67
2023-04-19T19:39:49.127Z,1.25
2023-04-19T19:42:16.667Z,0.55
2023-04-19T19:44:43.309Z,0.70
2023-04-19T19:47:10.953Z,0.50
2023-04-19T19:52:07.157Z,0.50
2023-04-19T19:54:33.546Z,1.33
2023-04-19T19:57:56.602Z,0.60
2023-04-19T19:59:51.323Z,1.02
2023-04-19T20:02:21.992Z,0.63
2023-04-19T20:04:49.043Z,0.50
2023-04-19T20:09:45.046Z,0.50
2023-04-19T20:12:13.468Z,0.60
2023-04-19T20:14:40.446Z,0.43
2023-04-19T20:17:07.053Z,0.70
2023-04-19T20:19:33.980Z,1.17
2023-04-19T20:22:00.478Z,1.73
2023-04-19T20:24:29.656Z,0.70
2023-04-19T20:26:57.400Z,0.88
2023-04-19T20:29:23.894Z,1.05
2023-04-19T20:31:50.363Z,0.82
2023-04-19T20:34:16.822Z,0.90
2023-04-19T20:36:46.616Z,0.50
2023-04-19T20:39:13.360Z,0.80
2023-04-19T20:41:39.905Z,0.60
2023-04-19T20:44:06.487Z,4.15
2023-04-19T20:46:35.989Z,0.40
2023-04-19T20:49:02.382Z,0.45
2023-04-19T20:51:28.708Z,0.40
2023-04-19T20:53:55.074Z,0.50
2023-04-19T20:56:21.553Z,0.52
2023-04-19T20:58:47.892Z,0.30
2023-04-19T21:01:17.167Z,0.40
2023-04-19T21:03:44.331Z,0.35
2023-04-19T21:06:11.138Z,0.35
2023-04-19T21:08:37.734Z,0.65
2023-04-19T21:11:04.223Z,0.85
2023-04-19T21:13:31.643Z,0.40
2023-04-19T21:15:58.134Z,0.40
2023-04-19T21:18:25.926Z,0.52
2023-04-19T21:20:52.255Z,0.40
2023-04-19T21:23:18.655Z,0.40
2023-04-19T21:25:45.040Z,0.50
2023-04-19T21:28:11.444Z,0.50
2023-04-19T21:30:40.732Z,0.73
2023-04-19T21:33:07.281Z,0.35
2023-04-19T21:35:34.060Z,0.40
2023-04-19T21:38:00.536Z,0.40
2023-04-19T21:40:26.950Z,0.40
2023-04-19T21:42:53.395Z,0.40
2023-04-19T21:45:19.742Z,0.30
2023-04-19T21:47:46.181Z,0.32
2023-04-19T21:50:12.522Z,0.50
2023-04-19T21:52:38.884Z,1.40
2023-04-19T21:55:05.807Z,0.43
2023-04-19T21:57:32.168Z,0.77
2023-04-19T21:59:58.494Z,0.38
2023-04-19T22:02:25.026Z,0.55
2023-04-19T22:04:53.965Z,0.30
2023-04-19T22:07:20.708Z,0.38
2023-04-19T22:09:47.691Z,0.40
2023-04-19T22:12:14.275Z,0.40
2023-04-19T22:14:40.836Z,0.70
2023-04-19T22:17:07.233Z,0.40
2023-04-19T22:19:33.755Z,0.65
2023-04-19T22:22:00.101Z,0.52
2023-04-19T22:24:26.600Z,0.40
2023-04-19T22:26:53.024Z,0.80
2023-04-19T22:29:19.657Z,0.50
2023-04-19T22:31:46.284Z,0.30
2023-04-19T22:34:12.721Z,0.40
2023-04-19T22:36:39.036Z,0.50
2023-04-19T22:39:05.333Z,0.52
2023-04-19T22:41:32.577Z,0.50
2023-04-19T22:43:59.333Z,0.63
2023-04-19T22:46:25.929Z,0.73
2023-04-19T22:48:52.356Z,0.57
2023-04-19T22:51:18.819Z,0.40
2023-04-19T22:53:45.207Z,1.35
2023-04-19T22:56:11.619Z,0.32
2023-04-19T22:58:38.061Z,0.60
2023-04-19T23:01:04.558Z,0.50
2023-04-19T23:03:31.036Z,0.60
2023-04-19T23:05:57.508Z,0.38
2023-04-19T23:08:24.987Z,0.40
2023-04-19T23:10:52.031Z,0.52
2023-04-19T23:13:18.484Z,1.05
2023-04-19T23:15:45.794Z,0.43
2023-04-19T23:18:12.258Z,0.40
2023-04-19T23:20:38.662Z,0.45
2023-04-19T23:23:05.622Z,1.15
2023-04-19T23:25:32.025Z,0.50
2023-04-19T23:27:58.363Z,0.40
2023-04-19T23:30:24.863Z,0.40
2023-04-19T23:32:51.287Z,0.40
2023-04-19T23:35:17.770Z,0.57
2023-04-19T23:37:44.125Z,0.40
2023-04-19T23:40:10.537Z,0.45
2023-04-19T23:42:38.167Z,0.40
2023-04-19T23:45:05.262Z,0.85
2023-04-19T23:47:31.636Z,0.50
2023-04-19T23:49:58.000Z,0.68
2023-04-19T23:52:24.952Z,0.57
2023-04-19T23:54:51.346Z,0.50
2023-04-19T23:57:18.436Z,0.75
2023-04-19T23:59:44.807Z,0.90
